Mustoe, VA (24468)

8:53 PM EST on December 05, 2016 (GMT -0500)
7 Acre Wood Farm | | Change Station
Active Advisory: Winter Weather Advisory

Elev 2493 ft 38.18 °N, 79.65 °W | Updated 29 seconds ago

Clear
Clear
38.4 °F
Feels Like 38 °F
N
2.0
Wind Variable Wind from NNE

Today
High -- | Low -- °F
--% Chance of Precip.
Yesterday
High -- | Low -- °F
Precip. -- in
Pressure 30.00 in
Visibility 10.0 miles
Clouds Clear
Windchill 38 °F
Dew Point 31 °F
Humidity 76%
Rainfall 0.00 in
Snow Depth Not available.
7:20 AM 4:58 PM
Waxing Crescent, 36% visible
METAR KHSP 060137Z AUTO 11006KT 10SM CLR 04/M03 A3000 RMK AO2
Pressure 30.00 in
Visibility 10.0 miles
Clouds Clear
Windchill 38 °F
Dew Point 31 °F
Humidity 76%
Rainfall 0.00 in
Snow Depth Not available.
7:20 AM 4:58 PM
Waxing Crescent, 36% visible
METAR KHSP 060137Z AUTO 11006KT 10SM CLR 04/M03 A3000 RMK AO2

10-Day Weather Forecast

Almanac

Astronomy

Dec. 05, 2016 Rise Set
Actual Time
Civil Twilight
Nautical Twilight
Astronomical Twilight
Moon
Length of Visible Light
Length of Day
Tomorrow will be .
, % of the Moon is Illuminated

Today's Extremes

State Highs State Lows

Community

WunderPhotos

Upload Photos

1,955,900 photos uploaded!

WunderBlog® & News

Nearby

Air Quality

  Air Quality AQ Index Pollutant
Not available.

Snow Depth

Station Depth Elevation

Earthquake Activity

City Distance Mag. Time & Date
Minimum magnitude displayed is 2.5.

Coastal Water Temperatures

Place Temperature

Stations

Nearby Weather Stations

Station Location Temp. Windchill Dew Point Humidity Wind Precip. Elev Updated Type
                   

Watches & Warnings

Winter Weather Advisory
Issued: 1:30 PM EST Dec. 5, 2016 – National Weather Service

... Winter Weather Advisory in effect from 2 am to 7 PM EST
Tuesday...

The National Weather Service in Baltimore MD/Washington has
issued a Winter Weather Advisory for snow... sleet and freezing
rain... which is in effect from 2 am to 7 PM EST Tuesday.

* Precipitation type... snow... sleet and freezing rain

* accumulations... up to 1 inch of snow and sleet... and up to a
tenth of an inch of ice.

* Timing... a wintry mix of snow... sleet and freezing rain will
overspread the area between 2 am and 6 am early Tuesday morning.
Precipitation will change to freezing rain after dawn on Tuesday
morning and continue through Tuesday afternoon.

* Impacts... untreated roads and sidewalks will become slick and
hazardous due to ice.

* Winds... southeast 10 to 15 mph with gusts up to 20 mph.

* Temperatures... in the low 30s.

Precautionary/preparedness actions...

A Winter Weather Advisory means that periods of snow... sleet... or
freezing rain will cause travel difficulties. Be prepared for
slippery roads and limited visibilities... and use caution while
driving.